Time;durP1;ratioP1;P1;durP2;ratioP2;P2;SDS_P1;SDS_P2;PMS_P1;PMS_P2;Temp;Humidity;BMP_temperature;BMP_pressure;BME280_temperature;BME280_humidity;BME280_pressure;Samples;Min_cycle;Max_cycle;Signal;HPM_P1;HPM_P2
2021/04/23 00:00:59;;;;;;;14.07;8.28;;;;;;;3.74;67.97;96893.85;1796943;78;21102;-77
2021/04/23 00:03:50;;;;;;;13.72;6.25;;;;;;;3.72;68.05;96888.03;1804746;78;21255;-77
2021/04/23 00:06:32;;;;;;;16.40;6.83;;;;;;;3.68;68.07;96890.52;1811667;78;21335;-77
2021/04/23 00:09:16;;;;;;;13.43;7.53;;;;;;;3.60;68.12;96891.97;1804682;78;21248;-76
2021/04/23 00:11:56;;;;;;;12.58;6.60;;;;;;;3.52;68.11;96896.91;1805126;78;21351;-77
2021/04/23 00:14:33;;;;;;;22.30;9.60;;;;;;;3.45;68.67;96892.41;1799997;78;21335;-79
2021/04/23 00:16:59;;;;;;;21.60;12.50;;;;;;;3.33;68.07;96895.50;1769724;80;21129;-78
2021/04/23 00:19:25;;;;;;;24.43;13.58;;;;;;;3.33;68.13;96900.63;1744317;81;21110;-78
2021/04/23 00:21:52;;;;;;;22.62;15.20;;;;;;;3.36;68.24;96899.09;1746237;81;21359;-77
2021/04/23 00:24:19;;;;;;;21.48;13.13;;;;;;;3.37;67.87;96904.58;1747980;81;21331;-77
2021/04/23 00:26:45;;;;;;;21.62;12.63;;;;;;;3.39;68.12;96898.84;1744716;81;21959;-77
2021/04/23 00:29:11;;;;;;;19.20;10.43;;;;;;;3.41;68.23;96896.96;1746991;81;21268;-77
2021/04/23 00:31:37;;;;;;;18.90;10.38;;;;;;;3.45;68.49;96901.41;1747867;81;21110;-79
2021/04/23 00:34:03;;;;;;;18.98;10.82;;;;;;;3.45;68.89;96907.36;1732098;81;21141;-78
2021/04/23 00:36:29;;;;;;;23.27;12.50;;;;;;;3.43;68.69;96909.23;1745332;81;21120;-79
2021/04/23 00:38:55;;;;;;;27.48;15.45;;;;;;;3.43;68.92;96910.52;1749218;81;21234;-79
2021/04/23 00:41:31;;;;;;;25.05;14.18;;;;;;;3.40;68.43;96906.89;1746517;81;21135;-78
2021/04/23 00:43:58;;;;;;;22.22;13.38;;;;;;;3.46;68.31;96916.69;1749859;81;21112;-78
2021/04/23 00:46:26;;;;;;;28.27;14.98;;;;;;;3.52;68.01;96922.61;1745363;81;21089;-78
2021/04/23 00:48:52;;;;;;;25.52;14.78;;;;;;;3.58;68.25;96921.31;1743072;81;21108;-78
2021/04/23 00:51:31;;;;;;;23.80;12.68;;;;;;;3.58;68.01;96921.31;1751712;81;21244;-78
2021/04/23 00:53:58;;;;;;;20.25;11.80;;;;;;;3.59;68.02;96922.47;1749622;81;21332;-78
2021/04/23 00:56:28;;;;;;;20.57;12.10;;;;;;;3.62;68.15;96917.55;1733336;81;21116;-78
2021/04/23 00:58:54;;;;;;;22.07;11.28;;;;;;;3.63;68.18;96919.17;1746832;81;21100;-78
2021/04/23 01:01:27;;;;;;;20.80;10.93;;;;;;;3.64;68.21;96912.28;1751052;81;21228;-78
2021/04/23 01:03:53;;;;;;;25.40;14.63;;;;;;;3.63;68.29;96914.50;1714391;82;21119;-78
2021/04/23 01:06:23;;;;;;;24.80;13.03;;;;;;;3.65;68.41;96920.33;1747577;80;21121;-79
2021/04/23 01:08:49;;;;;;;23.73;12.25;;;;;;;3.68;68.58;96911.89;1744045;80;21147;-78
2021/04/23 01:11:17;;;;;;;20.55;11.10;;;;;;;3.73;68.47;96918.74;1754273;80;21126;-78
2021/04/23 01:13:43;;;;;;;20.50;9.83;;;;;;;3.77;68.62;96915.47;1736110;82;21114;-78
2021/04/23 01:16:14;;;;;;;17.02;8.88;;;;;;;3.78;68.43;96921.77;1728239;82;21125;-77
2021/04/23 01:18:40;;;;;;;16.93;10.20;;;;;;;3.81;68.58;96917.66;1728460;82;21320;-77
2021/04/23 01:21:13;;;;;;;18.62;9.83;;;;;;;3.82;68.53;96917.19;1731913;82;21115;-77
2021/04/23 01:23:41;;;;;;;17.52;9.58;;;;;;;3.82;68.63;96923.61;1716046;82;21700;-79
2021/04/23 01:26:08;;;;;;;15.60;8.90;;;;;;;3.81;68.69;96925.37;1718641;82;21100;-78
2021/04/23 01:28:34;;;;;;;19.52;9.85;;;;;;;3.79;68.75;96926.44;1760356;81;21148;-79
2021/04/23 01:31:01;;;;;;;15.10;8.75;;;;;;;3.73;68.63;96934.16;1724685;82;21091;-79
2021/04/23 01:33:28;;;;;;;15.45;9.40;;;;;;;3.73;68.66;96926.92;1726568;82;21110;-77
2021/04/23 01:35:54;;;;;;;21.02;8.98;;;;;;;3.74;68.79;96931.13;1722024;82;21139;-77
2021/04/23 01:38:21;;;;;;;12.60;7.72;;;;;;;3.73;68.75;96931.59;1755039;81;21123;-77
2021/04/23 01:40:47;;;;;;;18.40;8.65;;;;;;;3.71;68.89;96927.05;1746650;81;21453;-77
2021/04/23 01:43:14;;;;;;;13.98;7.92;;;;;;;3.75;69.08;96922.03;1741321;81;21125;-77
2021/04/23 01:45:40;;;;;;;15.48;8.13;;;;;;;3.78;69.11;96915.81;1724836;82;21132;-77
2021/04/23 01:48:07;;;;;;;14.75;9.08;;;;;;;3.74;69.17;96911.41;1764070;81;21307;-77
2021/04/23 01:50:33;;;;;;;13.55;8.25;;;;;;;3.72;69.13;96921.44;1739710;81;21152;-77
2021/04/23 01:52:59;;;;;;;15.95;9.43;;;;;;;3.74;69.12;96922.13;1747367;81;21164;-78
2021/04/23 01:55:25;;;;;;;13.43;9.05;;;;;;;3.73;69.04;96918.74;1746045;81;21108;-78
2021/04/23 01:57:51;;;;;;;14.78;9.88;;;;;;;3.75;69.21;96923.78;1716522;81;21097;-78
2021/04/23 02:00:22;;;;;;;15.00;10.15;;;;;;;3.71;69.22;96918.06;1745996;81;21113;-79
2021/04/23 02:02:57;;;;;;;16.12;9.90;;;;;;;3.71;69.18;96928.34;1718149;82;21231;-78
2021/04/23 02:05:23;;;;;;;17.37;10.60;;;;;;;3.70;69.33;96922.04;1731336;82;21085;-78
2021/04/23 02:07:49;;;;;;;15.60;8.25;;;;;;;3.72;69.34;96929.16;1733742;82;21127;-81
2021/04/23 02:10:18;;;;;;;18.00;9.63;;;;;;;3.74;69.20;96929.84;1717343;82;21979;-77
2021/04/23 02:12:45;;;;;;;13.15;9.38;;;;;;;3.78;69.49;96920.95;1749685;81;21106;-77
2021/04/23 02:15:14;;;;;;;12.82;9.00;;;;;;;3.83;69.59;96923.48;1744024;81;21149;-77
2021/04/23 02:17:40;;;;;;;10.98;6.78;;;;;;;3.83;69.65;96925.23;1743528;81;21155;-77
2021/04/23 02:20:12;;;;;;;13.10;7.20;;;;;;;3.82;69.51;96923.61;1746892;81;21094;-77
2021/04/23 02:22:39;;;;;;;12.23;6.55;;;;;;;3.80;69.67;96926.31;1727510;82;21216;-77
2021/04/23 02:25:07;;;;;;;13.38;8.98;;;;;;;3.81;69.83;96934.84;1741954;81;21296;-77
2021/04/23 02:27:33;;;;;;;14.70;8.08;;;;;;;3.80;69.78;96939.16;1726012;82;21128;-77
2021/04/23 02:29:59;;;;;;;13.90;7.85;;;;;;;3.80;69.77;96931.45;1724427;82;21116;-78
2021/04/23 02:32:25;;;;;;;11.53;7.33;;;;;;;3.81;70.03;96932.27;1719567;82;21144;-79
2021/04/23 02:34:51;;;;;;;10.88;6.70;;;;;;;3.80;70.10;96931.45;1757996;81;21092;-79
2021/04/23 02:37:17;;;;;;;15.05;8.18;;;;;;;3.80;69.91;96939.16;1755440;81;21223;-79
2021/04/23 02:39:43;;;;;;;13.10;8.43;;;;;;;3.83;69.88;96932.95;1755112;81;21278;-77
2021/04/23 02:42:10;;;;;;;12.37;8.18;;;;;;;3.88;69.83;96930.80;1725376;82;22502;-78
2021/04/23 02:44:36;;;;;;;15.08;8.40;;;;;;;3.92;69.90;96933.48;1727724;82;21125;-79
2021/04/23 02:47:05;;;;;;;12.50;7.60;;;;;;;3.91;69.80;96933.96;1732444;82;21112;-77
2021/04/23 02:49:31;;;;;;;11.05;6.78;;;;;;;3.87;69.67;96928.70;1753036;81;21107;-77
2021/04/23 02:51:57;;;;;;;11.38;7.15;;;;;;;3.85;69.84;96924.64;1734382;82;21328;-77
2021/04/23 02:54:23;;;;;;;14.28;6.50;;;;;;;3.83;69.77;96932.95;1727645;82;21114;-77
2021/04/23 02:56:49;;;;;;;10.82;5.55;;;;;;;3.82;69.85;96930.85;1735562;82;21220;-77
2021/04/23 02:59:18;;;;;;;11.40;6.80;;;;;;;3.80;69.90;96934.49;1723113;82;21367;-77
2021/04/23 03:01:49;;;;;;;14.45;8.20;;;;;;;3.77;69.97;96930.42;1710653;81;21139;-77
2021/04/23 03:04:15;;;;;;;10.95;7.30;;;;;;;3.75;70.03;96932.78;1744633;81;21126;-77
2021/04/23 03:06:42;;;;;;;10.55;7.12;;;;;;;3.76;69.97;96936.98;1724892;82;21363;-77
2021/04/23 03:09:09;;;;;;;10.50;7.53;;;;;;;3.78;69.99;96934.63;1728111;82;21131;-77
2021/04/23 03:11:37;;;;;;;12.78;7.05;;;;;;;3.79;69.81;96931.58;1728108;82;21109;-77
2021/04/23 03:14:03;;;;;;;14.75;8.78;;;;;;;3.81;69.78;96938.22;1726976;82;21142;-77
2021/04/23 03:16:36;;;;;;;16.65;9.78;;;;;;;3.84;69.90;96935.86;1728299;82;21078;-78
2021/04/23 03:19:02;;;;;;;18.50;11.12;;;;;;;3.81;69.80;96935.66;1728038;82;21321;-77
2021/04/23 03:21:29;;;;;;;15.43;9.45;;;;;;;3.80;70.07;96935.78;1729112;82;21107;-79
2021/04/23 03:23:56;;;;;;;15.32;10.43;;;;;;;3.78;70.00;96937.19;1723281;82;21487;-79
2021/04/23 03:26:23;;;;;;;16.05;11.33;;;;;;;3.76;70.12;96942.94;1720532;82;21148;-79
2021/04/23 03:28:49;;;;;;;15.15;11.20;;;;;;;3.73;70.20;96940.59;1741569;81;21268;-79
2021/04/23 03:31:15;;;;;;;19.10;10.08;;;;;;;3.73;70.42;96944.45;1710351;81;21147;-79
2021/04/23 03:33:42;;;;;;;13.48;8.10;;;;;;;3.69;70.47;96931.98;1750573;80;21356;-78
2021/04/23 03:36:11;;;;;;;17.20;10.25;;;;;;;3.75;70.23;96942.59;1740412;81;21097;-78
2021/04/23 03:38:41;;;;;;;19.07;10.25;;;;;;;3.77;70.11;96943.75;1766713;80;21106;-78
2021/04/23 03:41:11;;;;;;;17.23;9.88;;;;;;;3.78;70.20;96949.23;1745266;81;21129;-78
2021/04/23 03:43:38;;;;;;;15.58;9.70;;;;;;;3.80;70.28;96949.91;1748761;81;21120;-78
2021/04/23 03:46:04;;;;;;;17.48;11.15;;;;;;;3.81;70.33;96955.41;1736871;81;21085;-78
2021/04/23 03:48:30;;;;;;;17.73;10.15;;;;;;;3.81;70.29;96954.12;1752197;81;21131;-77
2021/04/23 03:50:56;;;;;;;15.28;10.13;;;;;;;3.82;70.33;96953.17;1768646;80;21146;-77
2021/04/23 03:53:22;;;;;;;14.75;9.00;;;;;;;3.85;70.49;96962.73;1780122;79;21078;-77
2021/04/23 03:55:51;;;;;;;15.85;9.68;;;;;;;3.85;70.49;96955.48;1775678;79;21371;-77
2021/04/23 03:58:22;;;;;;;15.23;9.30;;;;;;;3.84;70.38;96957.72;1747905;80;21144;-77
2021/04/23 04:00:52;;;;;;;12.15;9.00;;;;;;;3.86;70.35;96957.93;1745655;81;21172;-77
2021/04/23 04:03:19;;;;;;;13.68;9.23;;;;;;;3.90;70.42;96962.34;1737663;81;21249;-77
2021/04/23 04:05:45;;;;;;;17.42;10.38;;;;;;;3.93;70.36;96960.02;1736965;81;22146;-77
2021/04/23 04:08:11;;;;;;;11.78;10.08;;;;;;;3.96;70.45;96964.43;1738166;81;21187;-77
2021/04/23 04:10:37;;;;;;;14.05;9.35;;;;;;;3.98;70.48;96958.69;1741708;81;21196;-77
2021/04/23 04:13:04;;;;;;;14.18;9.83;;;;;;;3.99;70.34;96958.21;1744717;81;21111;-77
2021/04/23 04:15:30;;;;;;;18.35;10.58;;;;;;;3.97;70.29;96956.24;1744365;81;21101;-77
2021/04/23 04:17:56;;;;;;;18.73;10.82;;;;;;;3.98;70.39;96959.97;1805290;78;21884;-77
2021/04/23 04:20:24;;;;;;;16.32;9.38;;;;;;;3.99;70.52;96965.92;1800295;78;21168;-77
2021/04/23 04:22:51;;;;;;;20.23;9.93;;;;;;;3.96;70.17;96965.71;1798196;78;21357;-77
2021/04/23 04:25:31;;;;;;;15.88;9.05;;;;;;;3.94;70.24;96965.03;1798304;78;21594;-77
2021/04/23 04:27:57;;;;;;;15.63;8.70;;;;;;;3.96;70.35;96965.71;1800564;78;21233;-77
2021/04/23 04:30:25;;;;;;;23.55;15.50;;;;;;;4.02;70.45;96966.95;1811031;78;21163;-77
2021/04/23 04:32:52;;;;;;;19.25;14.47;;;;;;;4.06;70.14;96974.28;1798484;78;21089;-79
2021/04/23 04:35:18;;;;;;;17.87;12.98;;;;;;;4.07;70.28;96972.55;1807948;78;21239;-78
2021/04/23 04:37:44;;;;;;;19.62;12.20;;;;;;;4.11;70.20;96981.16;1791762;78;21102;-77
2021/04/23 04:40:12;;;;;;;16.70;9.65;;;;;;;4.14;70.15;96983.48;1799446;78;21134;-79
2021/04/23 04:42:39;;;;;;;32.13;26.85;;;;;;;4.15;70.02;96983.01;1798949;78;21104;-78
2021/04/23 04:45:08;;;;;;;21.62;16.27;;;;;;;4.13;70.01;96984.42;1798672;78;21655;-78
2021/04/23 04:47:34;;;;;;;15.48;10.98;;;;;;;4.13;70.01;96984.89;1815495;78;21289;-77
2021/04/23 04:50:00;;;;;;;19.17;10.13;;;;;;;4.12;70.34;96986.66;1761189;78;21246;-77
2021/04/23 04:52:27;;;;;;;16.17;10.25;;;;;;;4.12;70.31;96995.66;1802021;78;21085;-77
2021/04/23 04:54:54;;;;;;;20.20;10.65;;;;;;;4.13;70.36;96993.89;1772536;78;21378;-77
2021/04/23 04:57:20;;;;;;;17.90;9.48;;;;;;;4.14;70.25;96995.52;1805059;78;21427;-74
2021/04/23 04:59:46;;;;;;;15.38;8.55;;;;;;;4.15;70.01;96992.01;1812624;78;21427;-75
2021/04/23 05:02:13;;;;;;;13.10;7.47;;;;;;;4.18;69.93;96992.56;1806806;78;21304;-75
2021/04/23 05:04:39;;;;;;;16.50;7.83;;;;;;;4.24;70.19;96996.41;1798624;78;21089;-75
2021/04/23 05:07:06;;;;;;;11.40;8.00;;;;;;;4.31;70.35;96998.80;1797510;78;22118;-77
2021/04/23 05:09:32;;;;;;;13.65;8.38;;;;;;;4.34;70.26;97002.87;1795403;78;21206;-77
2021/04/23 05:11:59;;;;;;;14.30;8.05;;;;;;;4.37;70.22;97005.18;1800247;78;21098;-78
2021/04/23 05:14:24;;;;;;;14.53;7.62;;;;;;;4.41;70.06;97005.29;1792501;78;21090;-77
2021/04/23 05:16:51;;;;;;;13.05;6.78;;;;;;;4.43;70.18;97011.94;1779100;78;21309;-78
2021/04/23 05:19:18;;;;;;;14.70;7.33;;;;;;;4.43;69.53;97006.79;1796752;78;21105;-77
2021/04/23 05:21:47;;;;;;;12.65;6.90;;;;;;;4.45;69.64;97009.23;1809942;78;21149;-76
2021/04/23 05:24:14;;;;;;;16.00;9.43;;;;;;;4.51;70.03;97012.56;1804759;78;21055;-76
2021/04/23 05:26:40;;;;;;;15.63;8.40;;;;;;;4.56;69.89;97016.06;1796762;79;21309;-75
2021/04/23 05:29:06;;;;;;;14.65;8.28;;;;;;;4.63;69.94;97012.83;1795309;78;21112;-78
2021/04/23 05:31:32;;;;;;;16.93;9.40;;;;;;;4.67;70.11;97013.38;1788255;78;21130;-78
2021/04/23 05:33:59;;;;;;;13.18;7.55;;;;;;;4.69;69.76;97012.30;1821063;78;21203;-78
2021/04/23 05:36:25;;;;;;;11.18;6.95;;;;;;;4.70;69.51;97016.50;1802513;79;21090;-78
2021/04/23 05:38:51;;;;;;;12.05;6.17;;;;;;;4.72;69.78;97012.55;1798460;78;21098;-78
2021/04/23 05:41:17;;;;;;;12.07;6.90;;;;;;;4.70;68.98;97020.36;1793181;78;21063;-78
2021/04/23 05:43:45;;;;;;;12.68;7.72;;;;;;;4.67;68.94;97019.81;1788412;78;21575;-78
2021/04/23 05:46:12;;;;;;;13.10;7.65;;;;;;;4.64;69.37;97023.94;1789794;78;21131;-77
2021/04/23 05:48:38;;;;;;;13.45;8.85;;;;;;;4.64;69.55;97027.33;1794042;78;21109;-78
2021/04/23 05:51:05;;;;;;;11.33;6.83;;;;;;;4.67;69.43;97027.54;1796091;78;21167;-78
2021/04/23 05:53:32;;;;;;;12.82;7.45;;;;;;;4.71;69.59;97024.57;1815153;78;21200;-77
2021/04/23 05:55:58;;;;;;;12.60;6.65;;;;;;;4.74;69.32;97029.48;1776011;80;21102;-77
2021/04/23 05:58:24;;;;;;;13.00;8.53;;;;;;;4.71;69.33;97031.00;1757793;80;21240;-79
2021/04/23 06:00:50;;;;;;;13.65;8.28;;;;;;;4.70;69.41;97033.23;1761379;81;21367;-81
2021/04/23 06:03:16;;;;;;;13.75;7.33;;;;;;;4.68;69.64;97036.42;1743470;81;21126;-78
2021/04/23 06:05:42;;;;;;;14.10;7.15;;;;;;;4.67;69.46;97041.70;1761830;81;21336;-76
2021/04/23 06:08:12;;;;;;;13.30;7.83;;;;;;;4.63;69.48;97039.05;1751578;81;21447;-78
2021/04/23 06:10:42;;;;;;;11.33;7.42;;;;;;;4.64;69.53;97044.06;1756952;81;21404;-77
2021/04/23 06:13:08;;;;;;;14.38;8.88;;;;;;;4.65;69.67;97043.59;1751614;81;21120;-77
2021/04/23 06:15:34;;;;;;;13.13;8.43;;;;;;;4.63;69.68;97041.14;1749292;81;21085;-75
2021/04/23 06:18:01;;;;;;;17.20;12.03;;;;;;;4.65;69.83;97047.45;1750990;81;21248;-76
2021/04/23 06:20:30;;;;;;;13.75;9.80;;;;;;;4.67;69.94;97055.38;1763638;81;21464;-77
2021/04/23 06:22:57;;;;;;;15.68;8.88;;;;;;;4.69;69.74;97053.48;1766548;81;21157;-78
2021/04/23 06:25:24;;;;;;;16.25;8.80;;;;;;;4.73;69.76;97052.31;1746566;81;21114;-77
2021/04/23 06:27:51;;;;;;;15.25;10.95;;;;;;;4.71;69.80;97054.64;1763512;81;21166;-77
2021/04/23 06:30:24;;;;;;;14.23;9.38;;;;;;;4.71;69.85;97059.32;1757730;81;21319;-77
2021/04/23 06:32:50;;;;;;;13.88;7.60;;;;;;;4.71;69.84;97063.19;1755554;81;21152;-78
2021/04/23 06:35:19;;;;;;;15.35;7.15;;;;;;;4.66;69.53;97060.19;1744617;81;21160;-78
2021/04/23 06:37:45;;;;;;;11.55;6.87;;;;;;;4.60;69.79;97067.15;1746659;81;21513;-77
2021/04/23 06:40:12;;;;;;;11.22;6.62;;;;;;;4.56;69.56;97068.83;1763919;81;21110;-78
2021/04/23 06:42:38;;;;;;;14.55;7.78;;;;;;;4.54;69.71;97062.49;1749386;81;21794;-78
2021/04/23 06:45:07;;;;;;;13.78;7.80;;;;;;;4.55;69.83;97068.45;1751729;81;21280;-76
2021/04/23 06:47:34;;;;;;;13.28;7.85;;;;;;;4.59;70.17;97060.84;1744239;81;21098;-76
2021/04/23 06:50:00;;;;;;;9.68;6.30;;;;;;;4.66;70.17;97061.95;1764552;81;21122;-76
2021/04/23 06:52:26;;;;;;;14.05;7.55;;;;;;;4.68;70.16;97055.72;1723685;81;21252;-80
2021/04/23 06:54:53;;;;;;;13.70;8.33;;;;;;;4.74;70.16;97056.52;1694591;83;21456;-78
2021/04/23 06:57:19;;;;;;;15.13;7.78;;;;;;;4.83;70.23;97059.59;1719071;81;21102;-76
2021/04/23 06:59:45;;;;;;;16.30;8.48;;;;;;;4.94;70.05;97059.16;1724887;81;21119;-76
2021/04/23 07:02:11;;;;;;;14.33;7.83;;;;;;;5.11;70.36;97059.83;1722448;83;21316;-77
2021/04/23 07:04:38;;;;;;;13.18;8.13;;;;;;;5.26;69.41;97060.28;1713312;81;21126;-77
2021/04/23 07:07:03;;;;;;;13.75;6.85;;;;;;;5.27;69.78;97061.44;1695755;83;21122;-77
2021/04/23 07:09:30;;;;;;;14.38;7.30;;;;;;;5.24;68.98;97064.28;1725878;83;21119;-77
2021/04/23 07:11:57;;;;;;;15.43;8.80;;;;;;;5.19;69.33;97068.17;1701100;83;21125;-76
2021/04/23 07:14:29;;;;;;;8.60;5.08;;;;;;;5.13;69.36;97061.33;1721785;82;21106;-77
2021/04/23 07:16:55;;;;;;;15.72;8.35;;;;;;;4.94;69.47;97035.98;1723728;81;21220;-76
2021/04/23 07:19:21;;;;;;;13.95;7.90;;;;;;;5.10;69.67;97064.64;1714837;81;21152;-76
2021/04/23 07:21:47;;;;;;;13.65;9.60;;;;;;;5.12;69.81;97060.17;1712416;81;21173;-78
2021/04/23 07:24:13;;;;;;;20.62;11.63;;;;;;;5.20;69.54;97066.75;1720584;81;21401;-76
2021/04/23 07:26:39;;;;;;;14.65;9.65;;;;;;;5.27;69.30;97065.30;1719183;81;21114;-78
2021/04/23 07:29:06;;;;;;;15.43;10.53;;;;;;;5.40;69.13;97067.64;1717685;81;21098;-77
2021/04/23 07:31:32;;;;;;;17.87;10.28;;;;;;;5.49;69.15;97066.02;1727323;81;21355;-78
2021/04/23 07:34:00;;;;;;;9.90;7.15;;;;;;;5.59;69.27;97066.37;1726085;81;21118;-76
2021/04/23 07:36:28;;;;;;;12.23;8.50;;;;;;;5.73;68.85;97069.05;1717651;81;21114;-79
2021/04/23 07:38:53;;;;;;;14.73;9.48;;;;;;;5.83;68.73;97067.73;1722532;81;21123;-77
2021/04/23 07:41:19;;;;;;;10.23;7.90;;;;;;;5.88;68.62;97066.41;1716499;81;21171;-77
2021/04/23 07:43:46;;;;;;;11.90;8.40;;;;;;;5.97;68.71;97057.05;1699992;83;21117;-78
2021/04/23 07:46:11;;;;;;;14.25;9.83;;;;;;;6.11;69.02;97067.44;1688641;83;21134;-78
2021/04/23 07:48:37;;;;;;;15.68;7.75;;;;;;;6.19;68.67;97069.69;1688325;83;21114;-76
2021/04/23 07:51:04;;;;;;;12.18;7.70;;;;;;;6.28;67.84;97069.32;1736537;81;21101;-77
2021/04/23 07:53:33;;;;;;;12.20;7.17;;;;;;;6.37;67.78;97076.25;1748149;80;21110;-78
2021/04/23 07:55:59;;;;;;;14.65;8.40;;;;;;;6.41;66.76;97063.88;1750792;80;21094;-78
2021/04/23 07:58:28;;;;;;;13.68;8.30;;;;;;;6.37;67.05;97078.83;1726135;80;21070;-76
2021/04/23 08:00:54;;;;;;;14.03;8.38;;;;;;;6.36;66.86;97075.91;1752837;80;21081;-78
2021/04/23 08:03:20;;;;;;;12.15;8.05;;;;;;;6.27;66.98;97078.83;1770737;80;21217;-78
2021/04/23 08:05:46;;;;;;;12.45;8.40;;;;;;;6.22;67.02;97083.59;1771769;80;21122;-76
2021/04/23 08:08:12;;;;;;;14.78;9.13;;;;;;;6.11;66.74;97082.92;1764614;80;21095;-76
2021/04/23 08:10:38;;;;;;;15.55;9.83;;;;;;;5.98;67.33;97091.73;1777846;80;21141;-78
2021/04/23 08:13:04;;;;;;;15.50;10.58;;;;;;;5.92;67.71;97087.61;1770923;80;21244;-79
2021/04/23 08:15:30;;;;;;;13.40;9.03;;;;;;;5.89;67.83;97088.67;1772337;79;21447;-78
2021/04/23 08:17:58;;;;;;;17.35;10.03;;;;;;;5.97;67.83;97090.11;1727142;81;21097;-76
2021/04/23 08:20:24;;;;;;;14.33;9.95;;;;;;;6.07;67.85;97095.28;1777632;80;21636;-76
2021/04/23 08:22:50;;;;;;;18.75;9.93;;;;;;;6.23;68.31;97094.26;1771433;80;21089;-76
2021/04/23 08:25:17;;;;;;;15.00;9.73;;;;;;;6.40;68.27;97087.58;1777124;80;21126;-79
2021/04/23 08:27:49;;;;;;;15.72;9.13;;;;;;;6.60;67.61;97090.45;1767156;80;21243;-78
2021/04/23 08:30:21;;;;;;;15.40;9.13;;;;;;;6.79;67.97;97096.05;1726662;81;21137;-77
2021/04/23 08:32:47;;;;;;;11.30;8.10;;;;;;;6.95;67.98;97091.58;1766779;79;21228;-76
2021/04/23 08:35:14;;;;;;;15.93;9.98;;;;;;;7.03;67.29;97087.82;1766728;80;21070;-76
2021/04/23 08:37:40;;;;;;;21.90;13.93;;;;;;;6.99;66.61;97085.16;1767411;80;21129;-76
2021/04/23 08:40:09;;;;;;;12.65;10.00;;;;;;;7.06;67.22;97090.11;1761660;80;21241;-77
2021/04/23 08:42:35;;;;;;;13.90;9.68;;;;;;;7.17;66.98;97085.25;1765923;79;21114;-76
2021/04/23 08:45:03;;;;;;;12.53;9.65;;;;;;;7.29;66.62;97083.27;1768486;80;21133;-78
2021/04/23 08:47:28;;;;;;;16.05;12.30;;;;;;;7.42;66.35;97080.68;1721596;81;21103;-77
2021/04/23 08:49:59;;;;;;;14.50;10.38;;;;;;;7.60;66.28;97078.60;1765711;80;21318;-76
2021/04/23 08:52:26;;;;;;;21.07;14.28;;;;;;;7.70;65.18;97084.05;1767511;80;21066;-76
2021/04/23 08:54:55;;;;;;;17.32;10.13;;;;;;;7.67;64.91;97079.66;1767570;80;21113;-76
2021/04/23 08:57:21;;;;;;;12.80;9.30;;;;;;;7.61;65.11;97074.58;1768031;80;21220;-78
2021/04/23 08:59:47;;;;;;;16.02;9.95;;;;;;;7.60;64.69;97070.36;1766410;80;21240;-77
2021/04/23 09:02:13;;;;;;;13.93;8.88;;;;;;;7.64;64.99;97059.23;1764289;80;21110;-82
2021/04/23 09:04:39;;;;;;;14.40;8.53;;;;;;;7.68;64.28;97066.58;1772022;80;21555;-78
2021/04/23 09:07:08;;;;;;;12.45;8.45;;;;;;;7.82;64.67;97067.37;1743418;81;21065;-78
2021/04/23 09:09:40;;;;;;;15.72;9.05;;;;;;;7.76;63.77;97069.23;1768686;80;21122;-77
2021/04/23 09:12:26;;;;;;;12.13;9.18;;;;;;;7.64;63.36;97070.88;1779636;79;21101;-77
2021/04/23 09:14:54;;;;;;;13.78;9.98;;;;;;;7.54;64.08;97073.55;1777192;79;21106;-78
2021/04/23 09:17:23;;;;;;;12.88;8.13;;;;;;;7.51;64.47;97068.19;1773162;80;21459;-76
2021/04/23 09:19:50;;;;;;;13.20;8.60;;;;;;;7.50;63.52;97075.61;1745615;81;21113;-78
2021/04/23 09:22:32;;;;;;;11.90;8.88;;;;;;;7.50;62.82;97073.51;1763311;80;21141;-77
2021/04/23 09:25:05;;;;;;;11.00;8.18;;;;;;;7.48;63.32;97064.61;1765467;80;21082;-78
2021/04/23 09:27:35;;;;;;;11.33;8.35;;;;;;;7.41;63.27;97073.08;1746008;80;21106;-78
2021/04/23 09:30:09;;;;;;;14.43;9.95;;;;;;;7.40;63.58;97068.86;1767344;80;21118;-76
2021/04/23 09:32:40;;;;;;;16.20;10.00;;;;;;;7.47;64.13;97066.83;1769743;80;21177;-78
2021/04/23 09:35:20;;;;;;;32.73;16.00;;;;;;;7.52;64.23;97071.59;1761114;80;21102;-78
2021/04/23 09:37:55;;;;;;;29.50;16.12;;;;;;;7.57;64.14;97078.42;1767479;80;21236;-76
2021/04/23 09:40:31;;;;;;;14.87;8.48;;;;;;;7.60;63.81;97071.66;1767366;80;21145;-76
2021/04/23 09:43:05;;;;;;;11.57;9.15;;;;;;;7.61;62.13;97074.58;1767822;80;21149;-77
2021/04/23 09:45:34;;;;;;;21.52;13.62;;;;;;;7.53;62.85;97074.50;1763822;79;21105;-83
2021/04/23 09:48:00;;;;;;;12.20;8.38;;;;;;;7.52;62.03;97085.33;1766428;79;21129;-78
2021/04/23 09:50:33;;;;;;;33.23;19.92;;;;;;;7.41;61.46;97079.53;1757137;79;21343;-77
2021/04/23 09:53:00;;;;;;;32.55;20.55;;;;;;;7.36;62.46;97083.05;1779718;78;21079;-78
2021/04/23 09:55:32;;;;;;;32.63;19.62;;;;;;;7.29;62.77;97090.55;1772195;79;21217;-76
2021/04/23 09:58:01;;;;;;;13.25;9.05;;;;;;;7.32;63.52;97088.98;1756739;79;21967;-76
2021/04/23 10:00:30;;;;;;;71.20;41.00;;;;;;;7.23;63.24;97096.30;1771057;79;21217;-76
2021/04/23 10:02:58;;;;;;;16.40;11.50;;;;;;;7.09;63.93;97107.10;1766927;79;21264;-76
2021/04/23 10:05:34;;;;;;;34.18;22.32;;;;;;;7.00;64.57;97115.72;1769855;79;21509;-76
2021/04/23 10:08:11;;;;;;;29.35;19.98;;;;;;;6.88;64.99;97113.78;1773419;79;21106;-76
2021/04/23 10:10:39;;;;;;;40.52;29.32;;;;;;;6.78;65.68;97115.56;1742834;81;21163;-76
2021/04/23 10:13:08;;;;;;;16.85;12.70;;;;;;;6.72;66.77;97118.23;1768779;79;21318;-77
2021/04/23 10:15:41;;;;;;;15.15;11.12;;;;;;;6.65;66.42;97119.73;1773270;79;21935;-75
2021/04/23 10:18:09;;;;;;;11.95;8.63;;;;;;;6.53;67.15;97118.28;1786167;79;21119;-76
2021/04/23 10:20:39;;;;;;;12.90;8.28;;;;;;;6.49;67.19;97122.88;1776521;79;21302;-76
2021/04/23 10:23:10;;;;;;;13.32;8.93;;;;;;;6.55;67.85;97117.66;1766703;79;21075;-78
2021/04/23 10:25:38;;;;;;;12.33;9.00;;;;;;;6.51;67.72;97107.28;1772357;79;21067;-77
2021/04/23 10:28:08;;;;;;;15.83;11.10;;;;;;;6.51;69.02;97105.51;1774343;79;21095;-78
2021/04/23 10:30:38;;;;;;;16.85;10.78;;;;;;;6.49;68.96;97094.95;1784947;79;21071;-78
2021/04/23 10:33:14;;;;;;;16.02;10.98;;;;;;;6.62;69.44;97099.35;1776733;79;21075;-77
2021/04/23 10:35:41;;;;;;;13.35;9.90;;;;;;;6.78;69.37;97096.19;1773129;79;21091;-76
2021/04/23 10:38:12;;;;;;;20.48;16.73;;;;;;;6.98;68.99;97085.30;1758330;79;21136;-78
2021/04/23 10:40:41;;;;;;;14.07;11.15;;;;;;;7.23;68.88;97082.08;1785155;79;21268;-76
2021/04/23 10:43:15;;;;;;;11.60;9.58;;;;;;;7.48;68.47;97078.83;1782824;79;21302;-76
2021/04/23 10:45:46;;;;;;;13.43;9.33;;;;;;;7.71;67.44;97076.63;1769546;79;21102;-78
2021/04/23 10:48:17;;;;;;;11.12;8.55;;;;;;;7.83;67.61;97068.99;1759725;79;21091;-76
2021/04/23 10:50:49;;;;;;;13.75;9.25;;;;;;;8.14;67.43;97069.91;1757805;79;21134;-78
2021/04/23 10:53:44;;;;;;;;;;;;;;;8.27;64.78;97069.02;1769541;79;21255;-75
2021/04/23 10:56:39;;;;;;;9.28;6.67;;;;;;;8.21;63.99;97064.45;1758627;80;20274;-76
2021/04/23 10:59:28;;;;;;;11.70;8.45;;;;;;;8.19;64.04;97068.97;1767212;80;21380;-77
2021/04/23 11:02:14;;;;;;;11.95;6.75;;;;;;;8.38;64.74;97066.71;1767408;80;21083;-77
2021/04/23 11:04:55;;;;;;;13.15;8.78;;;;;;;8.68;61.31;97062.38;1728428;82;21122;-77
2021/04/23 11:07:21;;;;;;;8.88;5.78;;;;;;;8.92;63.46;97060.88;1765062;80;21111;-76
2021/04/23 11:10:00;;;;;;;8.13;5.50;;;;;;;9.06;60.17;97056.41;1769020;80;21098;-77
2021/04/23 11:12:27;;;;;;;6.75;5.58;;;;;;;8.96;60.37;97060.44;1762188;80;21094;-77
2021/04/23 11:15:12;;;;;;;7.05;4.70;;;;;;;8.98;60.95;97057.20;1768085;79;21086;-76
2021/04/23 11:17:38;;;;;;;8.23;5.65;;;;;;;8.92;56.62;97062.17;1765690;80;21090;-77
2021/04/23 11:20:29;;;;;;;10.58;6.05;;;;;;;8.84;58.86;97062.14;1762324;80;21166;-76
2021/04/23 11:22:57;;;;;;;9.78;7.30;;;;;;;8.68;58.69;97063.67;1769943;80;21113;-78
2021/04/23 11:25:24;;;;;;;11.55;5.95;;;;;;;8.56;59.50;97069.26;1766422;80;21113;-78
2021/04/23 11:28:06;;;;;;;7.95;6.20;;;;;;;8.51;59.78;97067.13;1734506;81;21215;-78
2021/04/23 11:30:58;;;;;;;;;;;;;;;8.73;59.90;97065.31;1771065;80;21304;-78
2021/04/23 11:33:46;;;;;;;9.40;6.75;;;;;;;8.89;59.42;97058.11;1769871;79;20129;-77
2021/04/23 11:36:38;;;;;;;7.87;6.20;;;;;;;8.99;59.26;97045.86;1765769;80;21252;-78
2021/04/23 11:39:11;;;;;;;9.35;7.15;;;;;;;9.16;59.84;97047.23;1765375;80;21894;-75